sensor_id;sensor_type;location;lat;lon;timestamp;pressure;altitude;pressure_sealevel;temperature
67353;BMP180;54238;52.278;21.056;2023-04-01T00:01:36;98494.80;;;11.10
67353;BMP180;54238;52.278;21.056;2023-04-01T00:04:11;98498.00;;;11.10
67353;BMP180;54238;52.278;21.056;2023-04-01T00:06:38;98495.00;;;11.20
67353;BMP180;54238;52.278;21.056;2023-04-01T00:09:05;98494.20;;;11.20
67353;BMP180;54238;52.278;21.056;2023-04-01T00:11:33;98487.20;;;11.20
67353;BMP180;54238;52.278;21.056;2023-04-01T00:14:02;98485.40;;;11.16
67353;BMP180;54238;52.278;21.056;2023-04-01T00:16:32;98486.20;;;11.10
67353;BMP180;54238;52.278;21.056;2023-04-01T00:18:59;98486.80;;;11.10
67353;BMP180;54238;52.278;21.056;2023-04-01T00:21:30;98480.80;;;11.10
67353;BMP180;54238;52.278;21.056;2023-04-01T00:23:57;98479.00;;;11.10
67353;BMP180;54238;52.278;21.056;2023-04-01T00:26:27;98478.20;;;11.10
67353;BMP180;54238;52.278;21.056;2023-04-01T00:28:54;98474.80;;;11.10
67353;BMP180;54238;52.278;21.056;2023-04-01T00:31:24;98476.80;;;11.10
67353;BMP180;54238;52.278;21.056;2023-04-01T00:33:51;98474.20;;;11.10
67353;BMP180;54238;52.278;21.056;2023-04-01T00:36:21;98475.20;;;11.10
67353;BMP180;54238;52.278;21.056;2023-04-01T00:38:49;98465.60;;;11.10
67353;BMP180;54238;52.278;21.056;2023-04-01T00:41:19;98461.60;;;11.10
67353;BMP180;54238;52.278;21.056;2023-04-01T00:43:51;98465.20;;;11.10
67353;BMP180;54238;52.278;21.056;2023-04-01T00:46:21;98467.00;;;11.00
67353;BMP180;54238;52.278;21.056;2023-04-01T00:48:55;98464.00;;;11.00
67353;BMP180;54238;52.278;21.056;2023-04-01T00:51:28;98462.00;;;11.00
67353;BMP180;54238;52.278;21.056;2023-04-01T00:54:05;98454.00;;;11.00
67353;BMP180;54238;52.278;21.056;2023-04-01T00:56:38;98453.20;;;11.00
67353;BMP180;54238;52.278;21.056;2023-04-01T00:59:16;98458.40;;;11.00
67353;BMP180;54238;52.278;21.056;2023-04-01T01:01:46;98458.20;;;11.00
67353;BMP180;54238;52.278;21.056;2023-04-01T01:04:28;98458.60;;;11.00
67353;BMP180;54238;52.278;21.056;2023-04-01T01:07:54;98460.40;;;11.00
67353;BMP180;54238;52.278;21.056;2023-04-01T01:12:58;98461.40;;;11.00
67353;BMP180;54238;52.278;21.056;2023-04-01T01:15:39;98466.40;;;11.00
67353;BMP180;54238;52.278;21.056;2023-04-01T01:18:37;98464.20;;;10.96
67353;BMP180;54238;52.278;21.056;2023-04-01T01:27:20;98453.20;;;11.00
67353;BMP180;54238;52.278;21.056;2023-04-01T01:36:04;98450.60;;;10.90
67353;BMP180;54238;52.278;21.056;2023-04-01T01:38:35;98457.60;;;10.90
67353;BMP180;54238;52.278;21.056;2023-04-01T01:41:08;98465.20;;;11.00
67353;BMP180;54238;52.278;21.056;2023-04-01T01:43:42;98465.60;;;11.00
67353;BMP180;54238;52.278;21.056;2023-04-01T01:46:19;98463.80;;;11.00
67353;BMP180;54238;52.278;21.056;2023-04-01T01:48:48;98463.60;;;11.00
67353;BMP180;54238;52.278;21.056;2023-04-01T01:51:22;98466.40;;;11.00
67353;BMP180;54238;52.278;21.056;2023-04-01T01:53:54;98467.20;;;11.00
67353;BMP180;54238;52.278;21.056;2023-04-01T01:56:29;98464.60;;;11.00
67353;BMP180;54238;52.278;21.056;2023-04-01T01:59:03;98465.20;;;11.00
67353;BMP180;54238;52.278;21.056;2023-04-01T02:01:39;98464.60;;;11.00
67353;BMP180;54238;52.278;21.056;2023-04-01T02:04:10;98456.00;;;11.00
67353;BMP180;54238;52.278;21.056;2023-04-01T02:06:47;98454.80;;;11.00
67353;BMP180;54238;52.278;21.056;2023-04-01T02:09:19;98455.60;;;11.00
67353;BMP180;54238;52.278;21.056;2023-04-01T02:11:58;98449.80;;;11.00
67353;BMP180;54238;52.278;21.056;2023-04-01T02:14:36;98449.20;;;11.00
67353;BMP180;54238;52.278;21.056;2023-04-01T02:17:19;98448.60;;;11.00
67353;BMP180;54238;52.278;21.056;2023-04-01T02:20:11;98445.60;;;11.00
67353;BMP180;54238;52.278;21.056;2023-04-01T02:22:53;98443.20;;;11.00
67353;BMP180;54238;52.278;21.056;2023-04-01T02:25:30;98438.60;;;11.00
67353;BMP180;54238;52.278;21.056;2023-04-01T02:28:00;98438.00;;;11.00
67353;BMP180;54238;52.278;21.056;2023-04-01T02:30:39;98437.00;;;11.00
67353;BMP180;54238;52.278;21.056;2023-04-01T02:33:13;98432.80;;;11.00
67353;BMP180;54238;52.278;21.056;2023-04-01T02:35:40;98427.60;;;11.00
67353;BMP180;54238;52.278;21.056;2023-04-01T02:38:09;98421.00;;;11.00
67353;BMP180;54238;52.278;21.056;2023-04-01T02:40:56;98419.20;;;11.00
67353;BMP180;54238;52.278;21.056;2023-04-01T02:43:25;98421.40;;;11.00
67353;BMP180;54238;52.278;21.056;2023-04-01T02:45:54;98422.00;;;11.00
67353;BMP180;54238;52.278;21.056;2023-04-01T02:48:23;98418.80;;;11.00
67353;BMP180;54238;52.278;21.056;2023-04-01T02:50:50;98425.20;;;10.98
67353;BMP180;54238;52.278;21.056;2023-04-01T02:53:20;98424.80;;;10.90
67353;BMP180;54238;52.278;21.056;2023-04-01T02:55:54;98431.60;;;10.90
67353;BMP180;54238;52.278;21.056;2023-04-01T02:58:21;98426.80;;;10.80
67353;BMP180;54238;52.278;21.056;2023-04-01T03:00:50;98425.80;;;10.80
67353;BMP180;54238;52.278;21.056;2023-04-01T03:03:20;98428.60;;;10.80
67353;BMP180;54238;52.278;21.056;2023-04-01T03:05:50;98432.80;;;10.70
67353;BMP180;54238;52.278;21.056;2023-04-01T03:08:19;98438.80;;;10.70
67353;BMP180;54238;52.278;21.056;2023-04-01T03:10:46;98430.80;;;10.70
67353;BMP180;54238;52.278;21.056;2023-04-01T03:13:15;98434.00;;;10.68
67353;BMP180;54238;52.278;21.056;2023-04-01T03:15:44;98438.80;;;10.60
67353;BMP180;54238;52.278;21.056;2023-04-01T03:18:13;98443.00;;;10.60
67353;BMP180;54238;52.278;21.056;2023-04-01T03:20:41;98446.00;;;10.60
67353;BMP180;54238;52.278;21.056;2023-04-01T03:23:08;98452.20;;;10.60
67353;BMP180;54238;52.278;21.056;2023-04-01T03:25:35;98453.40;;;10.60
67353;BMP180;54238;52.278;21.056;2023-04-01T03:28:05;98449.60;;;10.50
67353;BMP180;54238;52.278;21.056;2023-04-01T03:30:34;98451.60;;;10.50
67353;BMP180;54238;52.278;21.056;2023-04-01T03:33:06;98452.80;;;10.50
67353;BMP180;54238;52.278;21.056;2023-04-01T03:35:33;98450.40;;;10.50
67353;BMP180;54238;52.278;21.056;2023-04-01T03:38:03;98448.20;;;10.50
67353;BMP180;54238;52.278;21.056;2023-04-01T03:40:35;98451.60;;;10.50
67353;BMP180;54238;52.278;21.056;2023-04-01T03:43:05;98450.20;;;10.50
67353;BMP180;54238;52.278;21.056;2023-04-01T03:45:48;98453.00;;;10.50
67353;BMP180;54238;52.278;21.056;2023-04-01T03:48:21;98455.00;;;10.50
67353;BMP180;54238;52.278;21.056;2023-04-01T03:50:48;98458.20;;;10.50
67353;BMP180;54238;52.278;21.056;2023-04-01T03:53:18;98465.60;;;10.50
67353;BMP180;54238;52.278;21.056;2023-04-01T03:55:48;98466.40;;;10.44
67353;BMP180;54238;52.278;21.056;2023-04-01T03:58:18;98478.60;;;10.40
67353;BMP180;54238;52.278;21.056;2023-04-01T04:00:46;98478.60;;;10.40
67353;BMP180;54238;52.278;21.056;2023-04-01T04:03:18;98486.20;;;10.30
67353;BMP180;54238;52.278;21.056;2023-04-01T04:05:49;98486.00;;;10.30
67353;BMP180;54238;52.278;21.056;2023-04-01T04:08:17;98486.60;;;10.30
67353;BMP180;54238;52.278;21.056;2023-04-01T04:10:45;98490.20;;;10.30
67353;BMP180;54238;52.278;21.056;2023-04-01T04:13:13;98486.20;;;10.26
67353;BMP180;54238;52.278;21.056;2023-04-01T04:15:43;98492.00;;;10.22
67353;BMP180;54238;52.278;21.056;2023-04-01T04:18:12;98497.20;;;10.22
67353;BMP180;54238;52.278;21.056;2023-04-01T04:20:46;98500.20;;;10.20
67353;BMP180;54238;52.278;21.056;2023-04-01T04:23:20;98491.00;;;10.20
67353;BMP180;54238;52.278;21.056;2023-04-01T04:26:05;98491.40;;;10.26
67353;BMP180;54238;52.278;21.056;2023-04-01T04:28:34;98492.40;;;10.30
67353;BMP180;54238;52.278;21.056;2023-04-01T04:31:05;98493.20;;;10.26
67353;BMP180;54238;52.278;21.056;2023-04-01T04:33:34;98498.20;;;10.26
67353;BMP180;54238;52.278;21.056;2023-04-01T04:36:03;98496.40;;;10.20
67353;BMP180;54238;52.278;21.056;2023-04-01T04:38:33;98499.60;;;10.26
67353;BMP180;54238;52.278;21.056;2023-04-01T04:41:00;98506.00;;;10.30
67353;BMP180;54238;52.278;21.056;2023-04-01T04:43:29;98509.40;;;10.22
67353;BMP180;54238;52.278;21.056;2023-04-01T04:45:56;98507.80;;;10.20
67353;BMP180;54238;52.278;21.056;2023-04-01T04:48:23;98506.00;;;10.24
67353;BMP180;54238;52.278;21.056;2023-04-01T04:50:51;98507.60;;;10.24
67353;BMP180;54238;52.278;21.056;2023-04-01T04:53:23;98506.40;;;10.24
67353;BMP180;54238;52.278;21.056;2023-04-01T04:55:55;98505.00;;;10.20
67353;BMP180;54238;52.278;21.056;2023-04-01T04:58:22;98513.00;;;10.20
67353;BMP180;54238;52.278;21.056;2023-04-01T05:00:49;98508.60;;;10.20
67353;BMP180;54238;52.278;21.056;2023-04-01T05:03:24;98510.40;;;10.14
67353;BMP180;54238;52.278;21.056;2023-04-01T05:05:54;98508.80;;;10.12
67353;BMP180;54238;52.278;21.056;2023-04-01T05:08:21;98507.20;;;10.20
67353;BMP180;54238;52.278;21.056;2023-04-01T05:10:48;98509.40;;;10.20
67353;BMP180;54238;52.278;21.056;2023-04-01T05:13:19;98514.80;;;10.20
67353;BMP180;54238;52.278;21.056;2023-04-01T05:15:49;98512.80;;;10.20
67353;BMP180;54238;52.278;21.056;2023-04-01T05:18:18;98512.40;;;10.20
67353;BMP180;54238;52.278;21.056;2023-04-01T05:20:51;98514.20;;;10.20
67353;BMP180;54238;52.278;21.056;2023-04-01T05:23:22;98514.60;;;10.20
67353;BMP180;54238;52.278;21.056;2023-04-01T05:25:54;98517.20;;;10.16
67353;BMP180;54238;52.278;21.056;2023-04-01T05:28:23;98527.40;;;10.14
67353;BMP180;54238;52.278;21.056;2023-04-01T05:30:53;98515.40;;;10.10
67353;BMP180;54238;52.278;21.056;2023-04-01T05:33:20;98513.00;;;10.10
67353;BMP180;54238;52.278;21.056;2023-04-01T05:35:55;98512.00;;;10.10
67353;BMP180;54238;52.278;21.056;2023-04-01T05:38:23;98509.80;;;10.10
67353;BMP180;54238;52.278;21.056;2023-04-01T05:40:50;98517.60;;;10.12
67353;BMP180;54238;52.278;21.056;2023-04-01T05:43:19;98521.20;;;10.20
67353;BMP180;54238;52.278;21.056;2023-04-01T05:45:48;98518.60;;;10.20
67353;BMP180;54238;52.278;21.056;2023-04-01T05:48:15;98519.40;;;10.20
67353;BMP180;54238;52.278;21.056;2023-04-01T05:50:44;98522.40;;;10.20
67353;BMP180;54238;52.278;21.056;2023-04-01T05:53:14;98518.40;;;10.20
67353;BMP180;54238;52.278;21.056;2023-04-01T05:55:46;98527.20;;;10.20
67353;BMP180;54238;52.278;21.056;2023-04-01T05:58:15;98529.20;;;10.20
67353;BMP180;54238;52.278;21.056;2023-04-01T06:00:42;98529.80;;;10.20
67353;BMP180;54238;52.278;21.056;2023-04-01T06:03:11;98528.20;;;10.20
67353;BMP180;54238;52.278;21.056;2023-04-01T06:05:43;98528.60;;;10.30
67353;BMP180;54238;52.278;21.056;2023-04-01T06:08:17;98536.00;;;10.30
67353;BMP180;54238;52.278;21.056;2023-04-01T06:23:24;98537.40;;;10.60
67353;BMP180;54238;52.278;21.056;2023-04-01T06:26:19;98539.80;;;10.74
67353;BMP180;54238;52.278;21.056;2023-04-01T06:43:45;98541.80;;;11.00
67353;BMP180;54238;52.278;21.056;2023-04-01T06:46:59;98546.20;;;11.04
67353;BMP180;54238;52.278;21.056;2023-04-01T06:52:35;98541.00;;;11.12
67353;BMP180;54238;52.278;21.056;2023-04-01T06:58:14;98546.40;;;11.20
67353;BMP180;54238;52.278;21.056;2023-04-01T07:01:04;98544.00;;;11.36
67353;BMP180;54238;52.278;21.056;2023-04-01T07:03:49;98547.80;;;11.50
67353;BMP180;54238;52.278;21.056;2023-04-01T07:06:38;98544.60;;;11.68
67353;BMP180;54238;52.278;21.056;2023-04-01T07:09:39;98546.00;;;11.80
67353;BMP180;54238;52.278;21.056;2023-04-01T07:15:05;98551.80;;;11.82
67353;BMP180;54238;52.278;21.056;2023-04-01T07:17:39;98548.40;;;11.90
67353;BMP180;54238;52.278;21.056;2023-04-01T07:20:16;98543.00;;;12.00
67353;BMP180;54238;52.278;21.056;2023-04-01T07:22:47;98542.40;;;12.00
67353;BMP180;54238;52.278;21.056;2023-04-01T07:25:38;98546.40;;;12.00
67353;BMP180;54238;52.278;21.056;2023-04-01T07:28:15;98549.40;;;11.90
67353;BMP180;54238;52.278;21.056;2023-04-01T07:31:16;98541.60;;;11.90
67353;BMP180;54238;52.278;21.056;2023-04-01T07:48:55;98553.60;;;12.10
67353;BMP180;54238;52.278;21.056;2023-04-01T07:51:34;98553.00;;;12.10
67353;BMP180;54238;52.278;21.056;2023-04-01T07:57:16;98556.20;;;11.96
67353;BMP180;54238;52.278;21.056;2023-04-01T07:59:58;98555.00;;;11.82
67353;BMP180;54238;52.278;21.056;2023-04-01T08:10:14;98561.60;;;12.00
67353;BMP180;54238;52.278;21.056;2023-04-01T08:24:13;98562.80;;;12.40
67353;BMP180;54238;52.278;21.056;2023-04-01T08:26:53;98566.40;;;12.50
67353;BMP180;54238;52.278;21.056;2023-04-01T08:30:02;98563.40;;;12.50
67353;BMP180;54238;52.278;21.056;2023-04-01T08:32:37;98565.40;;;12.40
67353;BMP180;54238;52.278;21.056;2023-04-01T08:35:30;98571.00;;;12.38
67353;BMP180;54238;52.278;21.056;2023-04-01T08:38:06;98572.80;;;12.30
67353;BMP180;54238;52.278;21.056;2023-04-01T09:00:49;98582.00;;;12.72
67353;BMP180;54238;52.278;21.056;2023-04-01T09:06:24;98578.40;;;12.90
67353;BMP180;54238;52.278;21.056;2023-04-01T09:15:25;98585.40;;;12.80
67353;BMP180;54238;52.278;21.056;2023-04-01T09:31:15;98592.80;;;12.20
67353;BMP180;54238;52.278;21.056;2023-04-01T09:42:44;98606.00;;;11.80
67353;BMP180;54238;52.278;21.056;2023-04-01T09:51:31;98606.60;;;11.70
67353;BMP180;54238;52.278;21.056;2023-04-01T09:54:18;98602.20;;;11.80
67353;BMP180;54238;52.278;21.056;2023-04-01T10:03:37;98608.20;;;12.14
67353;BMP180;54238;52.278;21.056;2023-04-01T10:18:24;98615.20;;;12.56
67353;BMP180;54238;52.278;21.056;2023-04-01T10:27:31;98625.00;;;12.50
67353;BMP180;54238;52.278;21.056;2023-04-01T10:42:20;98626.40;;;12.60
67353;BMP180;54238;52.278;21.056;2023-04-01T11:30:53;98624.40;;;13.94
67353;BMP180;54238;52.278;21.056;2023-04-01T11:45:35;98634.40;;;13.90
67353;BMP180;54238;52.278;21.056;2023-04-01T11:57:19;98637.80;;;13.50
67353;BMP180;54238;52.278;21.056;2023-04-01T12:06:32;98640.00;;;13.70
67353;BMP180;54238;52.278;21.056;2023-04-01T12:09:40;98634.80;;;14.00
67353;BMP180;54238;52.278;21.056;2023-04-01T12:12:46;98637.40;;;14.44
67353;BMP180;54238;52.278;21.056;2023-04-01T12:18:42;98640.20;;;15.30
67353;BMP180;54238;52.278;21.056;2023-04-01T12:21:27;98639.60;;;15.92
67353;BMP180;54238;52.278;21.056;2023-04-01T12:39:11;98655.60;;;16.60
67353;BMP180;54238;52.278;21.056;2023-04-01T12:56:09;98661.40;;;15.20
67353;BMP180;54238;52.278;21.056;2023-04-01T13:07:31;98668.00;;;14.80
67353;BMP180;54238;52.278;21.056;2023-04-01T13:10:36;98665.80;;;14.70
67353;BMP180;54238;52.278;21.056;2023-04-01T13:18:56;98676.80;;;14.70
67353;BMP180;54238;52.278;21.056;2023-04-01T13:21:59;98682.00;;;14.60
67353;BMP180;54238;52.278;21.056;2023-04-01T13:24:51;98681.00;;;14.50
67353;BMP180;54238;52.278;21.056;2023-04-01T13:30:29;98690.00;;;14.30
67353;BMP180;54238;52.278;21.056;2023-04-01T13:33:36;98695.40;;;14.10
67353;BMP180;54238;52.278;21.056;2023-04-01T13:36:33;98694.40;;;13.80
67353;BMP180;54238;52.278;21.056;2023-04-01T13:39:47;98700.40;;;13.60
67353;BMP180;54238;52.278;21.056;2023-04-01T13:56:37;98717.60;;;13.00
67353;BMP180;54238;52.278;21.056;2023-04-01T14:11:13;98731.40;;;12.90
67353;BMP180;54238;52.278;21.056;2023-04-01T14:37:40;98745.00;;;13.00
67353;BMP180;54238;52.278;21.056;2023-04-01T14:49:44;98768.40;;;12.70
67353;BMP180;54238;52.278;21.056;2023-04-01T14:54:49;98776.60;;;12.60
67353;BMP180;54238;52.278;21.056;2023-04-01T14:57:31;98775.00;;;12.50
67353;BMP180;54238;52.278;21.056;2023-04-01T15:00:13;98778.40;;;12.48
67353;BMP180;54238;52.278;21.056;2023-04-01T15:12:15;98798.80;;;12.20
67353;BMP180;54238;52.278;21.056;2023-04-01T15:36:11;98828.80;;;12.00
67353;BMP180;54238;52.278;21.056;2023-04-01T15:39:11;98836.40;;;12.00
67353;BMP180;54238;52.278;21.056;2023-04-01T15:42:25;98838.80;;;12.00
67353;BMP180;54238;52.278;21.056;2023-04-01T15:48:44;98843.20;;;11.90
67353;BMP180;54238;52.278;21.056;2023-04-01T15:51:29;98845.80;;;11.84
67353;BMP180;54238;52.278;21.056;2023-04-01T16:01:11;98854.20;;;11.80
67353;BMP180;54238;52.278;21.056;2023-04-01T16:04:05;98857.80;;;11.80
67353;BMP180;54238;52.278;21.056;2023-04-01T16:12:40;98876.40;;;11.78
67353;BMP180;54238;52.278;21.056;2023-04-01T16:15:56;98890.80;;;11.70
67353;BMP180;54238;52.278;21.056;2023-04-01T16:18:36;98892.00;;;11.70
67353;BMP180;54238;52.278;21.056;2023-04-01T16:24:43;98901.40;;;11.70
67353;BMP180;54238;52.278;21.056;2023-04-01T16:37:54;98917.20;;;11.60
67353;BMP180;54238;52.278;21.056;2023-04-01T16:40:52;98925.80;;;11.50
67353;BMP180;54238;52.278;21.056;2023-04-01T16:43:55;98928.80;;;11.50
67353;BMP180;54238;52.278;21.056;2023-04-01T16:46:38;98929.80;;;11.40
67353;BMP180;54238;52.278;21.056;2023-04-01T16:54:39;98954.60;;;11.20
67353;BMP180;54238;52.278;21.056;2023-04-01T17:02:37;98966.00;;;11.20
67353;BMP180;54238;52.278;21.056;2023-04-01T17:05:12;98970.60;;;11.20
67353;BMP180;54238;52.278;21.056;2023-04-01T17:07:56;98971.60;;;11.20
67353;BMP180;54238;52.278;21.056;2023-04-01T17:10:56;98975.80;;;11.20
67353;BMP180;54238;52.278;21.056;2023-04-01T17:19:25;98987.80;;;11.20
67353;BMP180;54238;52.278;21.056;2023-04-01T17:22:39;98990.40;;;11.20
67353;BMP180;54238;52.278;21.056;2023-04-01T17:37:48;99008.60;;;11.14
67353;BMP180;54238;52.278;21.056;2023-04-01T17:52:33;99040.00;;;11.10
67353;BMP180;54238;52.278;21.056;2023-04-01T17:55:50;99039.60;;;11.00
67353;BMP180;54238;52.278;21.056;2023-04-01T17:58:37;99045.00;;;11.00
67353;BMP180;54238;52.278;21.056;2023-04-01T18:16:37;99075.20;;;10.80
67353;BMP180;54238;52.278;21.056;2023-04-01T18:22:19;99081.20;;;10.68
67353;BMP180;54238;52.278;21.056;2023-04-01T18:30:31;99090.20;;;10.60
67353;BMP180;54238;52.278;21.056;2023-04-01T18:36:37;99101.40;;;10.60
67353;BMP180;54238;52.278;21.056;2023-04-01T18:39:16;99109.20;;;10.60
67353;BMP180;54238;52.278;21.056;2023-04-01T18:44:59;99121.00;;;10.60
67353;BMP180;54238;52.278;21.056;2023-04-01T18:47:42;99120.40;;;10.60
67353;BMP180;54238;52.278;21.056;2023-04-01T18:50:37;99120.40;;;10.50
67353;BMP180;54238;52.278;21.056;2023-04-01T18:53:31;99127.00;;;10.50
67353;BMP180;54238;52.278;21.056;2023-04-01T18:56:11;99129.40;;;10.50
67353;BMP180;54238;52.278;21.056;2023-04-01T19:02:35;99137.00;;;10.40
67353;BMP180;54238;52.278;21.056;2023-04-01T19:05:20;99142.60;;;10.34
67353;BMP180;54238;52.278;21.056;2023-04-01T19:07:55;99147.60;;;10.30
67353;BMP180;54238;52.278;21.056;2023-04-01T19:13:27;99149.80;;;10.30
67353;BMP180;54238;52.278;21.056;2023-04-01T19:16:21;99150.40;;;10.30
67353;BMP180;54238;52.278;21.056;2023-04-01T19:19:28;99156.80;;;10.30
67353;BMP180;54238;52.278;21.056;2023-04-01T19:46:10;99191.20;;;10.20
67353;BMP180;54238;52.278;21.056;2023-04-01T20:00:47;99210.20;;;10.04
67353;BMP180;54238;52.278;21.056;2023-04-01T20:14:57;99226.40;;;9.90
67353;BMP180;54238;52.278;21.056;2023-04-01T20:17:42;99226.00;;;9.80
67353;BMP180;54238;52.278;21.056;2023-04-01T20:20:23;99224.40;;;9.80
67353;BMP180;54238;52.278;21.056;2023-04-01T20:25:59;99230.20;;;9.70
67353;BMP180;54238;52.278;21.056;2023-04-01T20:35:25;99239.80;;;9.60
67353;BMP180;54238;52.278;21.056;2023-04-01T20:41:16;99245.40;;;9.40
67353;BMP180;54238;52.278;21.056;2023-04-01T20:44:18;99248.40;;;9.40
67353;BMP180;54238;52.278;21.056;2023-04-01T20:46:56;99253.60;;;9.40
67353;BMP180;54238;52.278;21.056;2023-04-01T20:52:42;99251.40;;;9.46
67353;BMP180;54238;52.278;21.056;2023-04-01T20:55:52;99260.80;;;9.40
67353;BMP180;54238;52.278;21.056;2023-04-01T21:05:27;99265.20;;;9.40
67353;BMP180;54238;52.278;21.056;2023-04-01T21:07:55;99273.20;;;9.40
67353;BMP180;54238;52.278;21.056;2023-04-01T21:10:46;99277.80;;;9.40
67353;BMP180;54238;52.278;21.056;2023-04-01T21:14:27;99280.60;;;9.40
67353;BMP180;54238;52.278;21.056;2023-04-01T21:16:51;99286.00;;;9.40
67353;BMP180;54238;52.278;21.056;2023-04-01T21:55:43;99326.80;;;9.20
67353;BMP180;54238;52.278;21.056;2023-04-01T21:58:41;99331.60;;;9.20
67353;BMP180;54238;52.278;21.056;2023-04-01T22:09:27;99340.20;;;9.20
67353;BMP180;54238;52.278;21.056;2023-04-01T22:23:32;99354.80;;;9.20
67353;BMP180;54238;52.278;21.056;2023-04-01T22:26:18;99356.60;;;9.20
67353;BMP180;54238;52.278;21.056;2023-04-01T22:29:02;99352.00;;;9.10
67353;BMP180;54238;52.278;21.056;2023-04-01T22:31:46;99357.60;;;9.10
67353;BMP180;54238;52.278;21.056;2023-04-01T22:34:32;99360.40;;;9.06
67353;BMP180;54238;52.278;21.056;2023-04-01T22:37:31;99361.20;;;9.00
67353;BMP180;54238;52.278;21.056;2023-04-01T22:46:03;99371.60;;;8.96
67353;BMP180;54238;52.278;21.056;2023-04-01T22:54:42;99379.40;;;8.90
67353;BMP180;54238;52.278;21.056;2023-04-01T22:57:19;99379.00;;;8.90
67353;BMP180;54238;52.278;21.056;2023-04-01T23:00:05;99381.80;;;8.86
67353;BMP180;54238;52.278;21.056;2023-04-01T23:05:57;99391.60;;;8.82
67353;BMP180;54238;52.278;21.056;2023-04-01T23:11:16;99392.60;;;8.82
67353;BMP180;54238;52.278;21.056;2023-04-01T23:31:44;99411.00;;;8.80
67353;BMP180;54238;52.278;21.056;2023-04-01T23:36:44;99410.20;;;8.80
67353;BMP180;54238;52.278;21.056;2023-04-01T23:39:41;99417.60;;;8.80
67353;BMP180;54238;52.278;21.056;2023-04-01T23:42:26;99418.60;;;8.80
67353;BMP180;54238;52.278;21.056;2023-04-01T23:45:04;99420.40;;;8.70
67353;BMP180;54238;52.278;21.056;2023-04-01T23:47:40;99425.00;;;8.70
67353;BMP180;54238;52.278;21.056;2023-04-01T23:50:18;99431.40;;;8.70
67353;BMP180;54238;52.278;21.056;2023-04-01T23:56:18;99434.00;;;8.64
67353;BMP180;54238;52.278;21.056;2023-04-01T23:58:49;99436.80;;;8.60
